Time;durP1;ratioP1;P1;durP2;ratioP2;P2;SDS_P1;SDS_P2;PMS_P1;PMS_P2;Temp;Humidity;BMP_temperature;BMP_pressure;BME280_temperature;BME280_humidity;BME280_pressure;Samples;Min_cycle;Max_cycle;Signal;HPM_P1;HPM_P2
2021/08/28 00:00:16;;;;;;;;;;;25.60;99.90;;;;;;1949578;73;20169;-89
2021/08/28 00:02:46;;;;;;;;;;;25.60;99.90;;;;;;1975056;73;20126;-89
2021/08/28 00:05:16;;;;;;;;;;;25.60;99.90;;;;;;1941011;74;20211;-89
2021/08/28 00:07:45;;;;;;;;;;;25.60;99.90;;;;;;1947545;73;20473;-88
2021/08/28 00:10:15;;;;;;;;;;;25.60;99.90;;;;;;1959273;73;20170;-89
2021/08/28 00:12:45;;;;;;;;;;;25.60;99.90;;;;;;1964992;73;20153;-90
2021/08/28 00:15:15;;;;;;;;;;;25.60;99.90;;;;;;1966377;73;20170;-90
2021/08/28 00:17:51;;;;;;;;;;;25.60;99.90;;;;;;1924656;74;20324;-91
2021/08/28 00:20:21;;;;;;;;;;;25.70;99.90;;;;;;1936407;73;20199;-91
2021/08/28 00:22:51;;;;;;;;;;;25.70;99.90;;;;;;1943353;73;20226;-92
2021/08/28 00:25:20;;;;;;;;;;;25.70;99.90;;;;;;1908323;74;20162;-92
2021/08/28 00:27:50;;;;;;;;;;;25.70;99.90;;;;;;1910793;74;20126;-90
2021/08/28 00:30:20;;;;;;;;;;;25.70;99.90;;;;;;1880379;76;20174;-90
2021/08/28 00:32:50;;;;;;;;;;;25.80;99.90;;;;;;1877083;76;20117;-91
2021/08/28 00:35:20;;;;;;;;;;;25.80;99.90;;;;;;1868756;76;20440;-88
2021/08/28 00:37:53;;;;;;;;;;;25.80;99.90;;;;;;1873860;76;20217;-88
2021/08/28 00:40:34;;;;;;;;;;;25.80;99.90;;;;;;1882627;76;20160;-87
2021/08/28 00:43:04;;;;;;;;;;;25.80;99.90;;;;;;1875473;76;20220;-87
2021/08/28 00:45:34;;;;;;;;;;;25.80;99.90;;;;;;1875800;76;20160;-87
2021/08/28 00:48:05;;;;;;;;;;;25.80;99.90;;;;;;1877068;76;20186;-86
2021/08/28 00:50:36;;;;;;;;;;;25.80;99.90;;;;;;1875640;76;20182;-87
2021/08/28 00:56:03;;;;;;;;;;;25.90;99.90;;;;;;1726758;82;20278;-87
2021/08/28 00:58:37;;;;;;;;;;;25.80;99.90;;;;;;1736500;82;20414;-87
2021/08/28 01:01:08;;;;;;;;;;;25.90;99.90;;;;;;1709133;82;20234;-86
2021/08/28 01:03:42;;;;;;;;;;;25.90;99.90;;;;;;1769068;79;20187;-85
2021/08/28 01:06:15;;;;;;;;;;;25.90;99.90;;;;;;1778594;79;20513;-87
2021/08/28 01:08:47;;;;;;;;;;;25.90;99.90;;;;;;1757563;79;20210;-86
2021/08/28 01:11:17;;;;;;;;;;;25.90;99.90;;;;;;1771234;79;20127;-87
2021/08/28 01:13:49;;;;;;;;;;;25.90;99.90;;;;;;1764404;79;20220;-87
2021/08/28 01:16:21;;;;;;;;;;;25.90;99.90;;;;;;1745288;80;20225;-87
2021/08/28 01:18:52;;;;;;;;;;;26.00;99.90;;;;;;1772704;79;20198;-87
2021/08/28 01:21:25;;;;;;;;;;;26.00;99.90;;;;;;1771913;79;20210;-87
2021/08/28 01:23:56;;;;;;;;;;;26.00;99.90;;;;;;1792667;78;20248;-86
2021/08/28 01:26:27;;;;;;;;;;;26.10;99.90;;;;;;1811611;77;20180;-87
2021/08/28 01:29:01;;;;;;;;;;;26.10;99.90;;;;;;1833237;77;20201;-88
2021/08/28 01:31:35;;;;;;;;;;;26.20;99.90;;;;;;1833218;77;20559;-88
2021/08/28 01:34:08;;;;;;;;;;;26.30;99.90;;;;;;1899558;73;20181;-88
2021/08/28 01:39:49;;;;;;;;;;;26.50;99.90;;;;;;1854088;77;20267;-86
2021/08/28 01:42:19;;;;;;;;;;;26.60;99.90;;;;;;1846370;77;20460;-87
2021/08/28 01:44:50;;;;;;;;;;;26.70;99.90;;;;;;1867422;77;20267;-87
2021/08/28 01:47:21;;;;;;;;;;;26.80;99.90;;;;;;1858594;75;20200;-86
2021/08/28 01:49:52;;;;;;;;;;;26.90;99.90;;;;;;1856584;77;20547;-87
2021/08/28 01:52:21;;;;;;;;;;;27.00;99.90;;;;;;1857916;77;20207;-87
2021/08/28 01:54:53;;;;;;;;;;;27.10;99.90;;;;;;1867455;77;20161;-87
2021/08/28 01:57:22;;;;;;;;;;;27.20;99.50;;;;;;1846665;77;20197;-86
2021/08/28 01:59:52;;;;;;;;;;;27.20;99.20;;;;;;1856330;77;20208;-87
2021/08/28 02:02:22;;;;;;;;;;;27.30;99.10;;;;;;1957293;72;20124;-88
2021/08/28 02:04:52;;;;;;;;;;;27.30;99.10;;;;;;1969641;72;20220;-87
2021/08/28 02:07:23;;;;;;;;;;;27.30;99.60;;;;;;1964228;72;20250;-88
2021/08/28 02:09:53;;;;;;;;;;;27.30;98.50;;;;;;1967140;72;20166;-88
2021/08/28 02:12:32;;;;;;;;;;;27.30;99.30;;;;;;1965335;72;20148;-87
2021/08/28 02:15:02;;;;;;;;;;;27.30;99.50;;;;;;1974282;72;20133;-88
2021/08/28 02:17:33;;;;;;;;;;;27.40;99.30;;;;;;1966635;72;20122;-87
2021/08/28 02:20:04;;;;;;;;;;;27.40;99.60;;;;;;1970040;72;20299;-88
2021/08/28 02:22:35;;;;;;;;;;;27.40;99.00;;;;;;1963715;72;20155;-87
2021/08/28 02:25:06;;;;;;;;;;;27.50;98.30;;;;;;1966870;72;20176;-88
2021/08/28 02:27:38;;;;;;;;;;;27.50;98.50;;;;;;1971200;72;20495;-88
2021/08/28 02:30:09;;;;;;;;;;;27.60;98.10;;;;;;1962242;72;20268;-87
2021/08/28 02:32:39;;;;;;;;;;;27.60;99.00;;;;;;1971592;72;20210;-87
2021/08/28 02:35:10;;;;;;;;;;;27.60;98.90;;;;;;1969200;72;20160;-88
2021/08/28 02:37:41;;;;;;;;;;;27.60;98.20;;;;;;1966458;72;20262;-86
2021/08/28 02:40:12;;;;;;;;;;;27.60;98.80;;;;;;1961634;72;20241;-87
2021/08/28 02:42:44;;;;;;;;;;;27.60;98.40;;;;;;1961873;72;20280;-87
2021/08/28 02:45:15;;;;;;;;;;;27.60;98.50;;;;;;1970800;72;20173;-85
2021/08/28 02:47:56;;;;;;;;;;;27.60;98.20;;;;;;1964588;72;20238;-86
2021/08/28 02:50:27;;;;;;;;;;;27.60;98.40;;;;;;1968661;72;20184;-86
2021/08/28 02:52:58;;;;;;;;;;;27.60;98.30;;;;;;1970699;72;20180;-89
2021/08/28 02:55:29;;;;;;;;;;;27.60;98.00;;;;;;1966646;72;20226;-86
2021/08/28 02:58:08;;;;;;;;;;;27.70;97.90;;;;;;1970921;72;20249;-87
2021/08/28 03:00:32;;;;;;;;;;;27.80;97.70;;;;;;1963571;72;20515;-87
2021/08/28 03:03:03;;;;;;;;;;;27.90;97.70;;;;;;1965269;72;20269;-87
2021/08/28 03:05:33;;;;;;;;;;;27.90;97.70;;;;;;1967218;72;20191;-87
2021/08/28 03:08:04;;;;;;;;;;;27.80;97.50;;;;;;1968236;72;20258;-87
2021/08/28 03:10:34;;;;;;;;;;;27.80;97.80;;;;;;1966492;72;20341;-87
2021/08/28 03:13:03;;;;;;;;;;;27.80;98.20;;;;;;1973988;72;20131;-88
2021/08/28 03:15:36;;;;;;;;;;;27.70;97.90;;;;;;1899473;75;20593;-89
2021/08/28 03:18:06;;;;;;;;;;;27.70;97.80;;;;;;1978132;72;20502;-89
2021/08/28 03:20:36;;;;;;;;;;;27.70;97.70;;;;;;1969404;72;20222;-87
2021/08/28 03:23:07;;;;;;;;;;;27.70;97.80;;;;;;1970088;72;20210;-86
2021/08/28 03:25:37;;;;;;;;;;;27.70;98.00;;;;;;1967624;72;20215;-88
2021/08/28 03:28:07;;;;;;;;;;;27.90;97.90;;;;;;1973141;72;20183;-86
2021/08/28 03:30:37;;;;;;;;;;;27.90;98.50;;;;;;1963026;72;20243;-87
2021/08/28 03:33:07;;;;;;;;;;;28.00;97.90;;;;;;1975111;72;20230;-88
2021/08/28 03:35:37;;;;;;;;;;;28.10;97.80;;;;;;1965594;72;20178;-89
2021/08/28 03:38:06;;;;;;;;;;;28.10;97.00;;;;;;1971631;72;20165;-87
2021/08/28 03:40:36;;;;;;;;;;;28.20;96.90;;;;;;1966909;72;20158;-88
2021/08/28 03:43:11;;;;;;;;;;;28.40;96.20;;;;;;1966877;72;20139;-88
2021/08/28 03:45:45;;;;;;;;;;;28.60;95.70;;;;;;1966609;72;20481;-88
2021/08/28 03:48:16;;;;;;;;;;;28.80;95.90;;;;;;1914420;74;20240;-87
2021/08/28 03:50:47;;;;;;;;;;;29.00;96.20;;;;;;1924072;74;20390;-88
2021/08/28 03:53:17;;;;;;;;;;;29.20;96.80;;;;;;1882869;75;20160;-90
2021/08/28 03:55:46;;;;;;;;;;;29.20;95.80;;;;;;1928613;74;20683;-88
2021/08/28 03:58:17;;;;;;;;;;;29.20;95.10;;;;;;1916947;74;20196;-86
2021/08/28 04:01:00;;;;;;;;;;;29.20;94.60;;;;;;1962552;72;20122;-86
2021/08/28 04:03:33;;;;;;;;;;;29.10;95.40;;;;;;1958162;72;20197;-87
2021/08/28 04:06:07;;;;;;;;;;;29.10;95.50;;;;;;1921543;73;20670;-86
2021/08/28 04:08:47;;;;;;;;;;;29.20;95.60;;;;;;1897845;74;20138;-87
2021/08/28 04:11:25;;;;;;;;;;;29.20;95.00;;;;;;1890899;74;20443;-85
2021/08/28 04:13:57;;;;;;;;;;;29.20;95.30;;;;;;1895054;74;20248;-86
2021/08/28 04:16:29;;;;;;;;;;;29.30;95.50;;;;;;1890837;74;20640;-84
2021/08/28 04:19:02;;;;;;;;;;;29.50;94.00;;;;;;1891718;74;20240;-86
2021/08/28 04:21:33;;;;;;;;;;;29.50;93.20;;;;;;1881740;74;20216;-87
2021/08/28 04:24:03;;;;;;;;;;;29.50;93.20;;;;;;1896068;74;20212;-87
2021/08/28 04:26:32;;;;;;;;;;;29.50;93.60;;;;;;1915561;74;20700;-89
2021/08/28 04:29:16;;;;;;;;;;;;;;;;;;;;;
2021/08/28 04:31:50;;;;;;;;;;;29.60;92.70;;;;;;1897259;74;20219;-87
2021/08/28 04:34:22;;;;;;;;;;;29.70;93.20;;;;;;1866781;74;20192;-86
2021/08/28 04:37:03;;;;;;;;;;;29.70;94.10;;;;;;1902657;74;20464;-86
2021/08/28 04:39:33;;;;;;;;;;;29.80;94.30;;;;;;1901311;74;20469;-86
2021/08/28 04:42:03;;;;;;;;;;;29.90;91.90;;;;;;1903273;74;20279;-86
2021/08/28 04:44:32;;;;;;;;;;;30.10;91.60;;;;;;1895365;74;20120;-87
2021/08/28 04:47:02;;;;;;;;;;;30.10;92.70;;;;;;1889392;74;20275;-86
2021/08/28 04:49:32;;;;;;;;;;;30.10;91.30;;;;;;1916687;73;20168;-86
2021/08/28 04:52:02;;;;;;;;;;;30.00;92.10;;;;;;1902205;74;20247;-86
2021/08/28 04:54:41;;;;;;;;;;;30.00;91.90;;;;;;1890525;76;20258;-86
2021/08/28 04:57:11;;;;;;;;;;;30.00;92.80;;;;;;1929703;73;20159;-86
2021/08/28 04:59:41;;;;;;;;;;;29.90;91.90;;;;;;1925009;73;20201;-87
2021/08/28 05:02:12;;;;;;;;;;;29.80;92.40;;;;;;1895430;75;20215;-87
2021/08/28 05:04:42;;;;;;;;;;;29.70;93.20;;;;;;1891409;74;20169;-86
2021/08/28 05:07:12;;;;;;;;;;;29.60;92.70;;;;;;1878227;75;20185;-85
2021/08/28 05:09:44;;;;;;;;;;;29.40;93.10;;;;;;1926452;73;20259;-87
2021/08/28 05:12:19;;;;;;;;;;;29.20;94.00;;;;;;1913852;74;20498;-87
2021/08/28 05:14:50;;;;;;;;;;;29.00;94.40;;;;;;1925898;73;20210;-86
2021/08/28 05:17:19;;;;;;;;;;;28.90;95.10;;;;;;1921245;74;20224;-86
2021/08/28 05:19:49;;;;;;;;;;;28.90;94.40;;;;;;1929010;73;20191;-85
2021/08/28 05:22:19;;;;;;;;;;;28.90;95.10;;;;;;1916880;73;20420;-88
2021/08/28 05:24:49;;;;;;;;;;;28.90;95.10;;;;;;1913535;74;20175;-88
2021/08/28 05:27:18;;;;;;;;;;;28.90;95.60;;;;;;1859598;76;20269;-87
2021/08/28 05:29:48;;;;;;;;;;;28.70;96.00;;;;;;1867212;76;20208;-88
2021/08/28 05:32:17;;;;;;;;;;;28.50;96.30;;;;;;1865891;76;20447;-86
2021/08/28 05:34:47;;;;;;;;;;;28.40;96.40;;;;;;1860625;76;20485;-86
2021/08/28 05:37:17;;;;;;;;;;;28.40;97.70;;;;;;1865306;76;20414;-88
2021/08/28 05:39:47;;;;;;;;;;;28.20;98.10;;;;;;1854513;76;20219;-89
2021/08/28 05:42:16;;;;;;;;;;;28.00;98.00;;;;;;1869472;76;20222;-88
2021/08/28 05:44:55;;;;;;;;;;;27.90;98.30;;;;;;1872932;76;20143;-87
2021/08/28 05:47:23;;;;;;;;;;;27.70;98.70;;;;;;1867743;76;20300;-87
2021/08/28 05:49:53;;;;;;;;;;;27.60;99.50;;;;;;1874570;76;20447;-88
2021/08/28 05:52:22;;;;;;;;;;;27.50;99.20;;;;;;1873261;76;20241;-88
2021/08/28 05:54:52;;;;;;;;;;;27.50;99.50;;;;;;1911739;75;20179;-87
2021/08/28 05:57:25;;;;;;;;;;;27.60;99.70;;;;;;1894926;75;20591;-89
2021/08/28 06:00:17;;;;;;;;;;;27.70;99.90;;;;;;1885329;76;20131;-88
2021/08/28 06:03:10;;;;;;;;;;;27.80;99.90;;;;;;1874097;76;20317;-87
2021/08/28 06:05:34;;;;;;;;;;;27.90;99.90;;;;;;1853446;76;20157;-88
2021/08/28 06:08:11;;;;;;;;;;;28.00;99.70;;;;;;1888241;76;20198;-87
2021/08/28 06:10:55;;;;;;;;;;;28.10;98.80;;;;;;1890197;76;20256;-88
2021/08/28 06:13:28;;;;;;;;;;;28.30;99.00;;;;;;1839973;76;20202;-89
2021/08/28 06:15:58;;;;;;;;;;;28.40;98.50;;;;;;1851820;75;20386;-88
2021/08/28 06:18:29;;;;;;;;;;;28.50;98.30;;;;;;1917517;74;20195;-88
2021/08/28 06:20:58;;;;;;;;;;;28.60;97.90;;;;;;1900448;74;20178;-87
2021/08/28 06:23:28;;;;;;;;;;;28.60;97.60;;;;;;1901179;74;20264;-87
2021/08/28 06:25:57;;;;;;;;;;;28.60;97.30;;;;;;1902171;74;20178;-87
2021/08/28 06:28:27;;;;;;;;;;;28.60;97.10;;;;;;1885554;75;20206;-88
2021/08/28 06:30:57;;;;;;;;;;;28.70;97.00;;;;;;1868204;76;20175;-88
2021/08/28 06:33:27;;;;;;;;;;;28.80;97.00;;;;;;1883687;75;20217;-86
2021/08/28 06:35:57;;;;;;;;;;;28.80;96.20;;;;;;1886322;75;20212;-87
2021/08/28 06:38:35;;;;;;;;;;;28.90;96.30;;;;;;1875310;75;20184;-88
2021/08/28 06:41:07;;;;;;;;;;;29.00;95.70;;;;;;1826083;75;20594;-86
2021/08/28 06:43:37;;;;;;;;;;;29.10;96.00;;;;;;1884843;75;20212;-87
2021/08/28 06:46:07;;;;;;;;;;;29.10;95.20;;;;;;1891290;75;20182;-87
2021/08/28 06:48:40;;;;;;;;;;;29.20;95.00;;;;;;1889738;75;20202;-89
2021/08/28 06:51:11;;;;;;;;;;;29.30;94.20;;;;;;1895359;75;20248;-88
2021/08/28 06:53:43;;;;;;;;;;;29.40;93.10;;;;;;1894710;75;20263;-88
2021/08/28 06:56:20;;;;;;;;;;;29.40;93.90;;;;;;1894436;75;20564;-89
2021/08/28 06:58:51;;;;;;;;;;;29.50;93.40;;;;;;1891847;75;20219;-87
2021/08/28 07:01:31;;;;;;;;;;;29.50;93.50;;;;;;1891373;75;20180;-87
2021/08/28 07:04:01;;;;;;;;;;;29.60;93.90;;;;;;1896700;75;20128;-88
2021/08/28 07:06:31;;;;;;;;;;;29.60;93.60;;;;;;1898903;73;20256;-90
2021/08/28 07:09:02;;;;;;;;;;;29.70;93.60;;;;;;1897328;74;20232;-89
2021/08/28 07:11:32;;;;;;;;;;;29.70;92.80;;;;;;1895672;75;20109;-89
2021/08/28 07:14:01;;;;;;;;;;;29.80;93.10;;;;;;1899956;74;20147;-88
2021/08/28 07:16:31;;;;;;;;;;;29.80;93.00;;;;;;1884743;75;20229;-88
2021/08/28 07:19:01;;;;;;;;;;;29.80;93.10;;;;;;1894029;75;20164;-88
2021/08/28 07:21:30;;;;;;;;;;;29.80;92.80;;;;;;1902035;75;20493;-87
2021/08/28 07:24:03;;;;;;;;;;;29.80;92.60;;;;;;1889702;75;20213;-88
2021/08/28 07:26:33;;;;;;;;;;;29.70;93.10;;;;;;1895147;74;20190;-87
2021/08/28 07:31:57;;;;;;;;;;;29.70;92.90;;;;;;1951012;72;20179;-88
2021/08/28 07:34:27;;;;;;;;;;;29.70;92.70;;;;;;1958291;72;20167;-88
2021/08/28 07:36:56;;;;;;;;;;;29.80;93.40;;;;;;1957491;72;20230;-87
2021/08/28 07:39:27;;;;;;;;;;;29.80;93.20;;;;;;1959114;72;20265;-87
2021/08/28 07:41:56;;;;;;;;;;;29.80;93.20;;;;;;1960117;72;20167;-88
2021/08/28 07:44:26;;;;;;;;;;;29.80;93.30;;;;;;1951634;72;20211;-89
2021/08/28 07:46:56;;;;;;;;;;;29.80;92.90;;;;;;1961779;72;20454;-89
2021/08/28 07:49:26;;;;;;;;;;;29.80;92.50;;;;;;1959187;72;20203;-90
2021/08/28 07:51:55;;;;;;;;;;;29.80;92.60;;;;;;1886690;75;20161;-88
2021/08/28 07:54:28;;;;;;;;;;;29.90;92.70;;;;;;1883111;75;20146;-88
2021/08/28 07:56:59;;;;;;;;;;;29.90;92.30;;;;;;1884238;75;20191;-89
2021/08/28 07:59:30;;;;;;;;;;;29.90;92.10;;;;;;1907881;74;20441;-87
2021/08/28 08:02:02;;;;;;;;;;;29.90;92.30;;;;;;1884459;75;20182;-87
2021/08/28 08:04:36;;;;;;;;;;;29.80;92.10;;;;;;1915255;74;20501;-87
2021/08/28 08:07:06;;;;;;;;;;;29.80;92.40;;;;;;1957705;72;20231;-88
2021/08/28 08:09:36;;;;;;;;;;;29.80;92.40;;;;;;1977813;72;20185;-89
2021/08/28 08:12:05;;;;;;;;;;;29.70;92.50;;;;;;1931233;73;20227;-88
2021/08/28 08:14:35;;;;;;;;;;;29.70;92.20;;;;;;1942873;72;20181;-88
2021/08/28 08:17:06;;;;;;;;;;;29.80;92.20;;;;;;1948382;72;20185;-88
2021/08/28 08:19:36;;;;;;;;;;;29.80;92.20;;;;;;1964259;72;20158;-88
2021/08/28 08:22:06;;;;;;;;;;;29.80;91.90;;;;;;1958997;72;20226;-88
2021/08/28 08:24:38;;;;;;;;;;;29.70;92.40;;;;;;1949414;72;20209;-87
2021/08/28 08:27:09;;;;;;;;;;;29.70;92.30;;;;;;1969887;72;20169;-87
2021/08/28 08:29:39;;;;;;;;;;;29.70;92.20;;;;;;1945153;72;20258;-87
2021/08/28 08:32:08;;;;;;;;;;;29.70;92.60;;;;;;1943165;72;20116;-87
2021/08/28 08:34:39;;;;;;;;;;;29.70;91.90;;;;;;1943232;72;20223;-86
2021/08/28 08:37:10;;;;;;;;;;;29.60;92.70;;;;;;1954889;72;20260;-87
2021/08/28 08:39:40;;;;;;;;;;;29.50;94.60;;;;;;1953245;72;20187;-86
2021/08/28 08:42:10;;;;;;;;;;;29.40;94.70;;;;;;1954551;72;20184;-87
2021/08/28 08:44:47;;;;;;;;;;;29.30;94.90;;;;;;1954238;72;20407;-88
2021/08/28 08:47:19;;;;;;;;;;;29.20;94.90;;;;;;1955220;72;20182;-87
2021/08/28 08:49:52;;;;;;;;;;;29.10;95.10;;;;;;1947187;73;20128;-89
2021/08/28 08:52:29;;;;;;;;;;;29.00;95.30;;;;;;1987106;70;20131;-88
2021/08/28 08:54:59;;;;;;;;;;;28.90;95.30;;;;;;1958725;72;20183;-87
2021/08/28 08:57:29;;;;;;;;;;;28.90;95.70;;;;;;1946646;72;20275;-87
2021/08/28 09:00:02;;;;;;;;;;;28.80;95.30;;;;;;1911618;73;20195;-88
2021/08/28 09:02:32;;;;;;;;;;;28.70;95.50;;;;;;1934792;73;20178;-86
2021/08/28 09:05:02;;;;;;;;;;;28.70;96.00;;;;;;1954547;73;20552;-86
2021/08/28 09:07:32;;;;;;;;;;;28.60;95.90;;;;;;1957735;72;20167;-89
2021/08/28 09:10:02;;;;;;;;;;;28.50;96.10;;;;;;1950219;73;20167;-88
2021/08/28 09:12:32;;;;;;;;;;;28.50;96.40;;;;;;1953367;73;20229;-89
2021/08/28 09:15:02;;;;;;;;;;;28.50;96.20;;;;;;1953847;73;20175;-90
2021/08/28 09:17:32;;;;;;;;;;;28.50;96.40;;;;;;1969504;72;20476;-92
2021/08/28 09:20:02;;;;;;;;;;;28.50;96.40;;;;;;1948164;72;20195;-88
2021/08/28 09:22:33;;;;;;;;;;;28.50;96.70;;;;;;1954323;73;20128;-88
2021/08/28 09:25:05;;;;;;;;;;;28.50;96.50;;;;;;1951177;72;20181;-87
2021/08/28 09:27:40;;;;;;;;;;;28.60;96.80;;;;;;1946426;73;20504;-86
2021/08/28 09:30:11;;;;;;;;;;;28.60;96.30;;;;;;1944419;73;20206;-88
2021/08/28 09:32:43;;;;;;;;;;;28.60;96.60;;;;;;1955047;72;20161;-89
2021/08/28 09:35:12;;;;;;;;;;;28.60;96.30;;;;;;1952894;72;20293;-89
2021/08/28 09:37:42;;;;;;;;;;;28.60;96.40;;;;;;1954813;72;20253;-89
2021/08/28 09:40:12;;;;;;;;;;;28.60;96.30;;;;;;1948106;72;20174;-89
2021/08/28 09:42:41;;;;;;;;;;;28.60;96.20;;;;;;1962567;72;20193;-89
2021/08/28 09:45:12;;;;;;;;;;;28.60;96.30;;;;;;1961310;72;20196;-89
2021/08/28 09:47:42;;;;;;;;;;;28.60;96.10;;;;;;1962133;72;20443;-86
2021/08/28 09:50:12;;;;;;;;;;;28.60;95.80;;;;;;1953605;72;20218;-88
2021/08/28 09:52:43;;;;;;;;;;;28.60;96.20;;;;;;1952229;73;20270;-88
2021/08/28 09:55:13;;;;;;;;;;;28.60;95.90;;;;;;1957432;72;20186;-89
2021/08/28 09:57:47;;;;;;;;;;;28.60;96.00;;;;;;1961297;72;20271;-88
2021/08/28 10:00:14;;;;;;;;;;;28.50;96.10;;;;;;1947049;72;20120;-88
2021/08/28 10:02:44;;;;;;;;;;;28.60;96.30;;;;;;1948456;72;20209;-89
2021/08/28 10:05:17;;;;;;;;;;;28.60;96.40;;;;;;1956497;72;20500;-90
2021/08/28 10:07:47;;;;;;;;;;;28.60;96.40;;;;;;1948762;72;20202;-87
2021/08/28 10:10:18;;;;;;;;;;;28.60;96.80;;;;;;1919464;75;20157;-90
2021/08/28 10:12:49;;;;;;;;;;;28.50;96.30;;;;;;1954471;73;20505;-87
2021/08/28 10:15:20;;;;;;;;;;;28.60;96.30;;;;;;1952765;72;20227;-88
2021/08/28 10:17:50;;;;;;;;;;;28.60;96.30;;;;;;1951449;73;20179;-87
2021/08/28 10:20:20;;;;;;;;;;;28.60;96.30;;;;;;1944039;72;20154;-87
2021/08/28 10:22:52;;;;;;;;;;;28.60;96.40;;;;;;1944255;72;20216;-89
2021/08/28 10:25:23;;;;;;;;;;;28.60;96.20;;;;;;1945835;72;20203;-90
2021/08/28 10:27:54;;;;;;;;;;;28.70;96.20;;;;;;1942670;72;20270;-91
2021/08/28 10:30:25;;;;;;;;;;;28.70;96.40;;;;;;1964458;72;20144;-88
2021/08/28 10:32:55;;;;;;;;;;;28.70;96.50;;;;;;1922785;72;20124;-85
2021/08/28 10:35:25;;;;;;;;;;;28.60;96.40;;;;;;1922813;72;20609;-89
2021/08/28 10:37:55;;;;;;;;;;;28.60;96.30;;;;;;1919967;73;20228;-89
2021/08/28 10:40:25;;;;;;;;;;;28.60;96.60;;;;;;1919846;73;20227;-88
2021/08/28 10:43:00;;;;;;;;;;;28.70;96.60;;;;;;1914668;73;20116;-89
2021/08/28 10:45:30;;;;;;;;;;;28.70;96.60;;;;;;1919617;72;20207;-88
2021/08/28 10:48:02;;;;;;;;;;;28.70;96.60;;;;;;1914568;73;20500;-88
2021/08/28 10:50:36;;;;;;;;;;;28.60;96.60;;;;;;1923668;73;20175;-88
2021/08/28 10:53:09;;;;;;;;;;;28.60;96.50;;;;;;1921941;72;20213;-88
2021/08/28 10:55:40;;;;;;;;;;;28.60;96.50;;;;;;1926087;73;20195;-91
2021/08/28 10:58:12;;;;;;;;;;;28.60;96.40;;;;;;1924962;73;20182;-90
2021/08/28 11:00:42;;;;;;;;;;;28.60;96.50;;;;;;1896866;74;20191;-90
2021/08/28 11:03:13;;;;;;;;;;;28.60;96.60;;;;;;1872149;76;20125;-91
2021/08/28 11:05:46;;;;;;;;;;;28.60;96.60;;;;;;1916533;73;20140;-89
2021/08/28 11:08:17;;;;;;;;;;;28.60;96.70;;;;;;1891501;74;20233;-89
2021/08/28 11:10:48;;;;;;;;;;;28.60;96.60;;;;;;1919830;73;20233;-88
2021/08/28 11:13:19;;;;;;;;;;;28.50;96.40;;;;;;1920232;73;20230;-88
2021/08/28 11:15:48;;;;;;;;;;;28.50;96.40;;;;;;1902590;73;20274;-89
2021/08/28 11:18:19;;;;;;;;;;;28.50;96.40;;;;;;1854896;76;20310;-88
2021/08/28 11:20:51;;;;;;;;;;;28.50;96.40;;;;;;1911382;73;20194;-88
2021/08/28 11:23:21;;;;;;;;;;;28.50;96.40;;;;;;1912678;72;20474;-87
2021/08/28 11:25:58;;;;;;;;;;;28.50;96.30;;;;;;1922497;72;20223;-88
2021/08/28 11:28:36;;;;;;;;;;;28.50;96.30;;;;;;1913489;74;20178;-87
2021/08/28 11:31:06;;;;;;;;;;;28.40;96.20;;;;;;1924942;73;20191;-88
2021/08/28 11:33:37;;;;;;;;;;;28.40;96.30;;;;;;1943187;73;20183;-89
2021/08/28 11:36:08;;;;;;;;;;;28.40;96.30;;;;;;1950376;72;20194;-89
2021/08/28 11:38:41;;;;;;;;;;;28.40;96.40;;;;;;1951686;72;20116;-88
2021/08/28 11:41:22;;;;;;;;;;;28.30;96.40;;;;;;1941063;72;20181;-88
2021/08/28 11:43:53;;;;;;;;;;;28.30;96.40;;;;;;1948690;72;20258;-88
2021/08/28 11:46:24;;;;;;;;;;;28.30;96.50;;;;;;1949593;72;20171;-87
2021/08/28 11:52:04;;;;;;;;;;;28.30;96.50;;;;;;1893256;74;20554;-89
2021/08/28 11:57:46;;;;;;;;;;;28.30;96.60;;;;;;1898319;74;20146;-88
2021/08/28 12:00:16;;;;;;;;;;;28.30;96.50;;;;;;1881583;74;20466;-88
2021/08/28 12:02:46;;;;;;;;;;;28.30;96.60;;;;;;1882326;74;20247;-88
2021/08/28 12:05:17;;;;;;;;;;;28.30;96.60;;;;;;1884495;74;20172;-88
2021/08/28 12:07:49;;;;;;;;;;;28.30;96.70;;;;;;1884695;74;20248;-89
2021/08/28 12:10:19;;;;;;;;;;;28.20;96.60;;;;;;1877266;76;20189;-88
2021/08/28 12:12:50;;;;;;;;;;;28.20;96.70;;;;;;1887344;76;20438;-89
2021/08/28 12:15:21;;;;;;;;;;;28.20;96.70;;;;;;1905333;73;20178;-89
2021/08/28 12:17:54;;;;;;;;;;;28.20;96.80;;;;;;1915545;73;20216;-89
2021/08/28 12:20:25;;;;;;;;;;;28.30;96.90;;;;;;1919566;73;20114;-88
2021/08/28 12:22:55;;;;;;;;;;;28.30;96.80;;;;;;1898240;75;20237;-88
2021/08/28 12:25:25;;;;;;;;;;;28.20;97.30;;;;;;1881394;74;20152;-89
2021/08/28 12:27:56;;;;;;;;;;;28.20;96.90;;;;;;1948351;72;20243;-89
2021/08/28 12:30:25;;;;;;;;;;;28.20;97.00;;;;;;1940191;73;20212;-89
2021/08/28 12:32:55;;;;;;;;;;;28.20;97.10;;;;;;1929900;72;20219;-89
2021/08/28 12:35:25;;;;;;;;;;;28.20;97.30;;;;;;1833312;77;20123;-90
2021/08/28 12:37:54;;;;;;;;;;;28.20;97.30;;;;;;1842253;76;20180;-90
2021/08/28 12:40:24;;;;;;;;;;;28.20;97.40;;;;;;1832173;76;20238;-90
2021/08/28 12:42:54;;;;;;;;;;;28.10;97.50;;;;;;1866534;75;20368;-90
2021/08/28 12:45:24;;;;;;;;;;;28.10;97.80;;;;;;1874625;75;20557;-88
2021/08/28 12:47:54;;;;;;;;;;;28.10;97.80;;;;;;1870315;74;20308;-88
2021/08/28 12:50:23;;;;;;;;;;;28.00;97.50;;;;;;1862476;75;20152;-87
2021/08/28 12:52:55;;;;;;;;;;;27.90;97.40;;;;;;1858678;75;20152;-89
2021/08/28 12:55:26;;;;;;;;;;;27.80;97.50;;;;;;1857433;75;20169;-90
2021/08/28 12:57:57;;;;;;;;;;;27.70;97.60;;;;;;1861957;76;20153;-88
2021/08/28 13:00:31;;;;;;;;;;;27.60;97.80;;;;;;1866738;75;20352;-89
2021/08/28 13:03:03;;;;;;;;;;;27.60;97.80;;;;;;1869724;75;20125;-88
2021/08/28 13:05:36;;;;;;;;;;;27.50;98.10;;;;;;1876007;75;20518;-89
2021/08/28 13:08:07;;;;;;;;;;;27.40;98.20;;;;;;1864140;75;20176;-88
2021/08/28 13:10:36;;;;;;;;;;;27.30;98.40;;;;;;1866675;75;20212;-87
2021/08/28 13:13:07;;;;;;;;;;;27.10;98.30;;;;;;1854848;75;20199;-87
2021/08/28 13:15:40;;;;;;;;;;;27.00;98.40;;;;;;1861216;75;20204;-88
2021/08/28 13:18:11;;;;;;;;;;;26.90;98.40;;;;;;1863680;76;20211;-89
2021/08/28 13:20:42;;;;;;;;;;;26.80;98.20;;;;;;1863637;75;20244;-88
2021/08/28 13:23:13;;;;;;;;;;;26.70;98.20;;;;;;1866797;76;20251;-88
2021/08/28 13:25:45;;;;;;;;;;;26.60;98.40;;;;;;1860435;76;20737;-90
2021/08/28 13:28:18;;;;;;;;;;;26.40;98.20;;;;;;1861342;75;20243;-89
2021/08/28 13:30:54;;;;;;;;;;;26.40;98.40;;;;;;1857684;76;20436;-90
2021/08/28 13:33:25;;;;;;;;;;;26.30;98.60;;;;;;1872039;75;20192;-90
2021/08/28 13:35:56;;;;;;;;;;;26.20;98.80;;;;;;1878811;74;20235;-88
2021/08/28 13:41:33;;;;;;;;;;;26.20;99.20;;;;;;1723899;79;20191;-88
2021/08/28 13:44:03;;;;;;;;;;;26.20;99.40;;;;;;1786943;79;20292;-87
2021/08/28 13:46:36;;;;;;;;;;;26.20;99.50;;;;;;1785852;79;20786;-90
2021/08/28 13:49:04;;;;;;;;;;;26.20;99.90;;;;;;1785877;79;20295;-89
2021/08/28 13:54:32;;;;;;;;;;;26.30;99.90;;;;;;1782284;79;20306;-89
2021/08/28 13:57:03;;;;;;;;;;;26.20;99.90;;;;;;1782101;79;20226;-90
2021/08/28 13:59:33;;;;;;;;;;;26.30;99.90;;;;;;1784122;79;20310;-88
2021/08/28 14:05:04;;;;;;;;;;;26.20;99.90;;;;;;1648323;84;20254;-90
2021/08/28 14:18:09;;;;;;;;;;;26.20;99.90;;;;;;1965088;70;20262;-88
2021/08/28 14:24:06;;;;;;;;;;;26.30;99.90;;;;;;1855776;72;20257;-88
2021/08/28 14:26:35;;;;;;;;;;;26.20;99.90;;;;;;1946759;72;20235;-89
2021/08/28 14:29:09;;;;;;;;;;;26.30;99.90;;;;;;1945374;72;20230;-89
2021/08/28 14:31:38;;;;;;;;;;;26.30;99.90;;;;;;1944838;72;20228;-90
2021/08/28 14:34:10;;;;;;;;;;;26.30;99.90;;;;;;1945293;72;20489;-89
2021/08/28 14:36:39;;;;;;;;;;;26.30;99.90;;;;;;1944542;72;20263;-88
2021/08/28 14:39:08;;;;;;;;;;;26.30;99.90;;;;;;1940054;72;20204;-87
2021/08/28 14:41:38;;;;;;;;;;;26.30;99.90;;;;;;1900792;74;20404;-90
2021/08/28 14:44:12;;;;;;;;;;;26.30;99.90;;;;;;1938948;72;20487;-88
2021/08/28 14:46:53;;;;;;;;;;;26.40;99.80;;;;;;1942495;72;20243;-88
2021/08/28 14:49:33;;;;;;;;;;;26.40;99.60;;;;;;1941178;72;20503;-90
2021/08/28 14:52:07;;;;;;;;;;;26.40;99.60;;;;;;1944925;72;20209;-88
2021/08/28 14:54:36;;;;;;;;;;;26.50;99.40;;;;;;1942441;72;20180;-89
2021/08/28 14:57:07;;;;;;;;;;;26.50;99.10;;;;;;1943522;72;20185;-91
2021/08/28 14:59:39;;;;;;;;;;;26.60;99.00;;;;;;1939781;72;20544;-89
2021/08/28 15:02:08;;;;;;;;;;;26.60;99.00;;;;;;1935444;72;20424;-89
2021/08/28 15:04:38;;;;;;;;;;;26.60;98.90;;;;;;1937766;73;20596;-88
2021/08/28 15:07:09;;;;;;;;;;;26.60;98.90;;;;;;1904631;75;20234;-88
2021/08/28 15:09:42;;;;;;;;;;;26.60;98.70;;;;;;1939367;73;20248;-89
2021/08/28 15:12:31;;;;;;;;;;;26.60;98.70;;;;;;1936773;73;20195;-89
2021/08/28 15:15:00;;;;;;;;;;;26.60;98.70;;;;;;1930333;73;20284;-88
2021/08/28 15:17:30;;;;;;;;;;;26.60;98.70;;;;;;1934007;73;20234;-89
2021/08/28 15:20:03;;;;;;;;;;;26.60;98.70;;;;;;1887232;74;20510;-88